sensor_id;sensor_type;location;lat;lon;timestamp;pressure;altitude;pressure_sealevel;temperature;humidity
3697;BME280;60662;48.810;8.872;2023-07-13T08:18:21;96788.75;;;22.67;46.43
3697;BME280;60662;48.810;8.872;2023-07-13T08:20:30;96791.09;;;23.10;47.10
3697;BME280;60662;48.810;8.872;2023-07-13T08:21:32;96784.56;;;23.52;46.78
3697;BME280;60662;48.810;8.872;2023-07-13T08:22:33;96792.28;;;23.45;45.93
3697;BME280;60662;48.810;8.872;2023-07-13T08:23:36;96789.91;;;23.42;44.94
3697;BME280;60662;48.810;8.872;2023-07-13T08:24:38;96784.44;;;23.43;44.95
3697;BME280;60662;48.810;8.872;2023-07-13T08:25:39;96783.47;;;23.35;44.20
3697;BME280;60662;48.810;8.872;2023-07-13T08:26:41;96784.03;;;23.38;45.27
3697;BME280;60662;48.810;8.872;2023-07-13T08:29:10;96786.44;;;23.69;44.54
3697;BME280;60662;48.810;8.872;2023-07-13T08:30:11;96785.28;;;23.72;44.28
3697;BME280;60662;48.810;8.872;2023-07-13T08:31:13;96785.75;;;23.67;44.89
3697;BME280;60662;48.810;8.872;2023-07-13T08:32:16;96784.06;;;23.66;44.61
3697;BME280;60662;48.810;8.872;2023-07-13T08:33:20;96781.53;;;23.37;44.04
3697;BME280;60662;48.810;8.872;2023-07-13T08:34:22;96781.84;;;23.04;44.56
3697;BME280;60662;48.810;8.872;2023-07-13T08:35:24;96784.94;;;23.19;45.09
3697;BME280;60662;48.810;8.872;2023-07-13T08:36:27;96789.66;;;23.73;44.89
3697;BME280;60662;48.810;8.872;2023-07-13T08:37:29;96785.22;;;24.19;44.48
3697;BME280;60662;48.810;8.872;2023-07-13T08:38:30;96786.53;;;24.51;44.00
3697;BME280;60662;48.810;8.872;2023-07-13T08:39:33;96785.44;;;24.08;43.36
3697;BME280;60662;48.810;8.872;2023-07-13T08:40:36;96784.22;;;24.20;44.31
3697;BME280;60662;48.810;8.872;2023-07-13T08:41:38;96786.50;;;24.15;43.70
3697;BME280;60662;48.810;8.872;2023-07-13T08:42:45;96792.16;;;24.30;44.30
3697;BME280;60662;48.810;8.872;2023-07-13T08:43:51;96784.94;;;24.58;44.19
3697;BME280;60662;48.810;8.872;2023-07-13T08:45:16;96791.84;;;24.87;44.02
3697;BME280;60662;48.810;8.872;2023-07-13T08:46:35;96784.72;;;25.14;43.38
3697;BME280;60662;48.810;8.872;2023-07-13T08:47:40;96788.91;;;25.17;43.46
3697;BME280;60662;48.810;8.872;2023-07-13T08:49:05;96791.25;;;24.57;43.15
3697;BME280;60662;48.810;8.872;2023-07-13T08:50:13;96781.03;;;24.71;43.17
3697;BME280;60662;48.810;8.872;2023-07-13T08:51:33;96797.56;;;24.56;43.41
3697;BME280;60662;48.810;8.872;2023-07-13T08:52:41;96793.28;;;24.09;43.88
3697;BME280;60662;48.810;8.872;2023-07-13T08:54:49;96789.91;;;24.53;43.13
3697;BME280;60662;48.810;8.872;2023-07-13T08:55:59;96790.06;;;24.70;43.50
3697;BME280;60662;48.810;8.872;2023-07-13T08:57:08;96791.16;;;24.31;43.19
3697;BME280;60662;48.810;8.872;2023-07-13T08:58:15;96792.50;;;24.81;43.35
3697;BME280;60662;48.810;8.872;2023-07-13T08:59:19;96791.47;;;25.00;43.57
3697;BME280;60662;48.810;8.872;2023-07-13T09:00:31;96791.72;;;25.15;42.84
3697;BME280;60662;48.810;8.872;2023-07-13T09:01:56;96791.41;;;25.36;42.39
3697;BME280;60662;48.810;8.872;2023-07-13T09:03:02;96793.28;;;25.00;42.38
3697;BME280;60662;48.810;8.872;2023-07-13T09:04:21;96785.91;;;24.93;43.04
3697;BME280;60662;48.810;8.872;2023-07-13T09:05:36;96781.88;;;24.53;42.94
3697;BME280;60662;48.810;8.872;2023-07-13T09:09:02;96788.66;;;25.02;43.22
3697;BME280;60662;48.810;8.872;2023-07-13T09:10:20;96796.91;;;24.90;42.95
3697;BME280;60662;48.810;8.872;2023-07-13T09:14:51;96794.06;;;24.92;43.37
3697;BME280;60662;48.810;8.872;2023-07-13T09:15:51;96803.63;;;25.21;42.63
3697;BME280;60662;48.810;8.872;2023-07-13T09:16:53;96790.69;;;25.61;42.41
3697;BME280;60662;48.810;8.872;2023-07-13T09:18:01;96794.59;;;25.74;41.81
3697;BME280;60662;48.810;8.872;2023-07-13T09:19:07;96789.97;;;25.50;41.23
3697;BME280;60662;48.810;8.872;2023-07-13T09:20:30;96792.97;;;25.82;41.93
3697;BME280;60662;48.810;8.872;2023-07-13T09:21:37;96788.19;;;26.02;42.25
3697;BME280;60662;48.810;8.872;2023-07-13T09:22:40;96794.63;;;26.17;41.63
3697;BME280;60662;48.810;8.872;2023-07-13T09:23:43;96784.78;;;25.83;41.90
3697;BME280;60662;48.810;8.872;2023-07-13T09:24:55;96792.25;;;26.06;42.69
3697;BME280;60662;48.810;8.872;2023-07-13T09:26:06;96793.84;;;25.90;41.67
3697;BME280;60662;48.810;8.872;2023-07-13T09:27:20;96788.72;;;25.63;41.15
3697;BME280;60662;48.810;8.872;2023-07-13T09:28:26;96799.97;;;25.48;41.87
3697;BME280;60662;48.810;8.872;2023-07-13T09:29:34;96801.38;;;25.08;42.58
3697;BME280;60662;48.810;8.872;2023-07-13T09:30:52;96793.34;;;25.52;43.04
3697;BME280;60662;48.810;8.872;2023-07-13T09:32:02;96792.53;;;25.34;41.92
3697;BME280;60662;48.810;8.872;2023-07-13T09:33:04;96791.78;;;25.23;42.50
3697;BME280;60662;48.810;8.872;2023-07-13T09:34:10;96787.13;;;25.52;43.19
3697;BME280;60662;48.810;8.872;2023-07-13T09:35:17;96794.13;;;25.45;43.41
3697;BME280;60662;48.810;8.872;2023-07-13T09:36:23;96788.03;;;25.61;42.58
3697;BME280;60662;48.810;8.872;2023-07-13T09:37:30;96794.06;;;25.71;42.33
3697;BME280;60662;48.810;8.872;2023-07-13T09:38:33;96797.88;;;26.03;42.76
3697;BME280;60662;48.810;8.872;2023-07-13T09:39:39;96789.09;;;26.11;41.90
3697;BME280;60662;48.810;8.872;2023-07-13T09:42:20;96785.31;;;25.87;42.79
3697;BME280;60662;48.810;8.872;2023-07-13T09:43:23;96787.75;;;25.37;42.94
3697;BME280;60662;48.810;8.872;2023-07-13T09:44:34;96792.84;;;25.91;43.39
3697;BME280;60662;48.810;8.872;2023-07-13T09:45:37;96785.63;;;26.43;42.43
3697;BME280;60662;48.810;8.872;2023-07-13T09:46:43;96788.47;;;26.33;42.52
3697;BME280;60662;48.810;8.872;2023-07-13T09:47:46;96790.97;;;26.18;42.13
3697;BME280;60662;48.810;8.872;2023-07-13T09:48:49;96789.41;;;26.07;42.02
3697;BME280;60662;48.810;8.872;2023-07-13T09:49:56;96791.88;;;26.01;42.24
3697;BME280;60662;48.810;8.872;2023-07-13T09:51:09;96785.09;;;26.15;41.84
3697;BME280;60662;48.810;8.872;2023-07-13T09:52:15;96784.97;;;26.24;41.26
3697;BME280;60662;48.810;8.872;2023-07-13T09:53:19;96791.19;;;25.99;41.69
3697;BME280;60662;48.810;8.872;2023-07-13T09:54:24;96781.16;;;25.32;41.78
3697;BME280;60662;48.810;8.872;2023-07-13T09:56:30;96788.16;;;25.33;42.46
3697;BME280;60662;48.810;8.872;2023-07-13T09:57:33;96779.81;;;25.54;42.50
3697;BME280;60662;48.810;8.872;2023-07-13T09:58:51;96778.03;;;25.63;42.77
3697;BME280;60662;48.810;8.872;2023-07-13T09:59:55;96783.72;;;25.68;42.60
3697;BME280;60662;48.810;8.872;2023-07-13T10:01:02;96783.16;;;25.90;42.24
3697;BME280;60662;48.810;8.872;2023-07-13T10:02:30;96778.31;;;25.94;42.23
3697;BME280;60662;48.810;8.872;2023-07-13T10:03:35;96791.94;;;25.74;42.41
3697;BME280;60662;48.810;8.872;2023-07-13T10:04:41;96790.00;;;25.93;42.00
3697;BME280;60662;48.810;8.872;2023-07-13T10:05:44;96787.94;;;26.21;41.96
3697;BME280;60662;48.810;8.872;2023-07-13T10:06:46;96786.59;;;26.26;41.79
3697;BME280;60662;48.810;8.872;2023-07-13T10:07:51;96790.72;;;26.03;41.23
3697;BME280;60662;48.810;8.872;2023-07-13T10:08:54;96790.78;;;25.77;41.41
3697;BME280;60662;48.810;8.872;2023-07-13T10:09:59;96783.50;;;25.35;42.27
3697;BME280;60662;48.810;8.872;2023-07-13T10:11:17;96778.09;;;25.79;41.24
3697;BME280;60662;48.810;8.872;2023-07-13T10:12:19;96783.44;;;25.87;41.08
3697;BME280;60662;48.810;8.872;2023-07-13T10:13:54;96779.84;;;25.62;42.13
3697;BME280;60662;48.810;8.872;2023-07-13T10:14:59;96783.00;;;25.57;42.70
3697;BME280;60662;48.810;8.872;2023-07-13T10:16:23;96786.66;;;25.30;42.93
3697;BME280;60662;48.810;8.872;2023-07-13T10:17:29;96787.78;;;25.01;43.39
3697;BME280;60662;48.810;8.872;2023-07-13T10:18:39;96788.81;;;25.87;42.96
3697;BME280;60662;48.810;8.872;2023-07-13T10:19:42;96782.25;;;26.08;41.60
3697;BME280;60662;48.810;8.872;2023-07-13T10:20:47;96779.97;;;25.95;41.13
3697;BME280;60662;48.810;8.872;2023-07-13T10:22:00;96790.97;;;26.18;40.99
3697;BME280;60662;48.810;8.872;2023-07-13T10:23:05;96777.81;;;25.99;42.14
3697;BME280;60662;48.810;8.872;2023-07-13T10:24:23;96788.41;;;26.08;43.17
3697;BME280;60662;48.810;8.872;2023-07-13T10:25:27;96783.31;;;26.56;42.35
3697;BME280;60662;48.810;8.872;2023-07-13T10:26:32;96786.72;;;26.83;41.77
3697;BME280;60662;48.810;8.872;2023-07-13T10:27:36;96783.00;;;26.51;42.38
3697;BME280;60662;48.810;8.872;2023-07-13T10:28:38;96779.28;;;26.69;42.54
3697;BME280;60662;48.810;8.872;2023-07-13T10:30:19;96783.88;;;26.93;41.82
3697;BME280;60662;48.810;8.872;2023-07-13T10:31:19;96788.66;;;26.40;41.73
3697;BME280;60662;48.810;8.872;2023-07-13T10:32:24;96782.94;;;26.27;41.42
3697;BME280;60662;48.810;8.872;2023-07-13T10:33:26;96780.19;;;26.02;40.73
3697;BME280;60662;48.810;8.872;2023-07-13T10:34:28;96786.41;;;25.76;40.95
3697;BME280;60662;48.810;8.872;2023-07-13T10:35:31;96780.53;;;25.72;41.23
3697;BME280;60662;48.810;8.872;2023-07-13T10:36:39;96783.03;;;25.66;42.39
3697;BME280;60662;48.810;8.872;2023-07-13T10:38:02;96790.47;;;25.01;44.30
3697;BME280;60662;48.810;8.872;2023-07-13T10:39:15;96795.47;;;25.22;44.10
3697;BME280;60662;48.810;8.872;2023-07-13T10:40:27;96789.50;;;25.89;43.82
3697;BME280;60662;48.810;8.872;2023-07-13T10:41:34;96795.34;;;26.52;42.07
3697;BME280;60662;48.810;8.872;2023-07-13T10:42:40;96792.53;;;27.28;41.49
3697;BME280;60662;48.810;8.872;2023-07-13T10:43:51;96787.78;;;27.55;41.21
3697;BME280;60662;48.810;8.872;2023-07-13T10:44:53;96798.59;;;26.81;41.67
3697;BME280;60662;48.810;8.872;2023-07-13T10:45:55;96795.75;;;26.99;41.28
3697;BME280;60662;48.810;8.872;2023-07-13T10:47:00;96790.53;;;26.89;41.82
3697;BME280;60662;48.810;8.872;2023-07-13T10:48:03;96791.38;;;27.39;41.40
3697;BME280;60662;48.810;8.872;2023-07-13T10:49:07;96797.22;;;27.18;41.02
3697;BME280;60662;48.810;8.872;2023-07-13T10:50:21;96792.97;;;26.24;41.88
3697;BME280;60662;48.810;8.872;2023-07-13T10:51:23;96790.81;;;25.85;42.86
3697;BME280;60662;48.810;8.872;2023-07-13T10:53:48;96783.72;;;25.68;42.19
3697;BME280;60662;48.810;8.872;2023-07-13T10:55:35;96793.47;;;25.51;42.80
3697;BME280;60662;48.810;8.872;2023-07-13T10:56:41;96790.91;;;26.10;42.13
3697;BME280;60662;48.810;8.872;2023-07-13T10:57:42;96793.88;;;26.58;41.30
3697;BME280;60662;48.810;8.872;2023-07-13T10:58:44;96796.50;;;26.50;41.44
3697;BME280;60662;48.810;8.872;2023-07-13T11:01:16;96785.84;;;26.99;39.17
3697;BME280;60662;48.810;8.872;2023-07-13T11:02:26;96782.38;;;26.74;39.73
3697;BME280;60662;48.810;8.872;2023-07-13T11:03:31;96778.13;;;26.47;39.71
3697;BME280;60662;48.810;8.872;2023-07-13T11:04:43;96775.91;;;26.26;40.50
3697;BME280;60662;48.810;8.872;2023-07-13T11:05:49;96776.41;;;25.86;40.80
3697;BME280;60662;48.810;8.872;2023-07-13T11:06:57;96769.53;;;25.75;40.66
3697;BME280;60662;48.810;8.872;2023-07-13T11:08:13;96765.72;;;25.43;41.05
3697;BME280;60662;48.810;8.872;2023-07-13T11:10:54;96778.00;;;26.89;40.50
3697;BME280;60662;48.810;8.872;2023-07-13T11:12:02;96774.16;;;26.84;40.11
3697;BME280;60662;48.810;8.872;2023-07-13T11:15:56;96780.66;;;27.39;38.77
3697;BME280;60662;48.810;8.872;2023-07-13T11:16:57;96777.16;;;26.81;39.00
3697;BME280;60662;48.810;8.872;2023-07-13T11:18:03;96780.84;;;26.96;39.58
3697;BME280;60662;48.810;8.872;2023-07-13T11:21:16;96781.09;;;27.59;37.83
3697;BME280;60662;48.810;8.872;2023-07-13T11:22:46;96786.34;;;27.19;38.47
3697;BME280;60662;48.810;8.872;2023-07-13T11:24:03;96779.47;;;27.17;37.84
3697;BME280;60662;48.810;8.872;2023-07-13T11:25:28;96775.13;;;27.08;38.04
3697;BME280;60662;48.810;8.872;2023-07-13T11:27:52;96754.31;;;27.34;38.34
3697;BME280;60662;48.810;8.872;2023-07-13T11:29:54;96780.16;;;27.11;38.46
3697;BME280;60662;48.810;8.872;2023-07-13T11:30:48;96775.97;;;26.75;39.22
3697;BME280;60662;48.810;8.872;2023-07-13T11:31:55;96780.66;;;27.23;38.53
3697;BME280;60662;48.810;8.872;2023-07-13T11:33:27;96769.75;;;27.89;38.44
3697;BME280;60662;48.810;8.872;2023-07-13T11:34:31;96775.28;;;28.27;36.87
3697;BME280;60662;48.810;8.872;2023-07-13T11:35:37;96772.38;;;28.60;37.14
3697;BME280;60662;48.810;8.872;2023-07-13T11:36:43;96769.63;;;28.45;36.67
3697;BME280;60662;48.810;8.872;2023-07-13T11:37:46;96770.28;;;28.47;37.26
3697;BME280;60662;48.810;8.872;2023-07-13T11:39:05;96770.94;;;28.17;37.32
3697;BME280;60662;48.810;8.872;2023-07-13T11:40:14;96763.50;;;27.96;37.52
3697;BME280;60662;48.810;8.872;2023-07-13T11:41:19;96766.25;;;27.80;37.36
3697;BME280;60662;48.810;8.872;2023-07-13T11:42:21;96769.25;;;28.48;37.44
3697;BME280;60662;48.810;8.872;2023-07-13T11:43:23;96759.31;;;28.80;37.17
3697;BME280;60662;48.810;8.872;2023-07-13T11:44:26;96754.97;;;27.93;37.90
3697;BME280;60662;48.810;8.872;2023-07-13T11:45:28;96761.91;;;27.79;38.50
3697;BME280;60662;48.810;8.872;2023-07-13T11:46:53;96757.66;;;27.45;38.45
3697;BME280;60662;48.810;8.872;2023-07-13T11:47:56;96759.53;;;27.44;38.66
3697;BME280;60662;48.810;8.872;2023-07-13T11:49:05;96764.09;;;26.78;39.73
3697;BME280;60662;48.810;8.872;2023-07-13T11:50:18;96773.97;;;26.94;39.41
3697;BME280;60662;48.810;8.872;2023-07-13T11:51:26;96765.41;;;26.57;39.51
3697;BME280;60662;48.810;8.872;2023-07-13T11:52:35;96772.75;;;26.38;40.24
3697;BME280;60662;48.810;8.872;2023-07-13T11:53:44;96773.22;;;26.26;40.22
3697;BME280;60662;48.810;8.872;2023-07-13T11:54:51;96773.94;;;26.44;39.99
3697;BME280;60662;48.810;8.872;2023-07-13T11:55:57;96765.25;;;26.92;39.79
3697;BME280;60662;48.810;8.872;2023-07-13T11:57:03;96769.97;;;26.73;39.67
3697;BME280;60662;48.810;8.872;2023-07-13T11:58:08;96768.56;;;26.36;39.45
3697;BME280;60662;48.810;8.872;2023-07-13T11:59:12;96763.41;;;26.67;39.40
3697;BME280;60662;48.810;8.872;2023-07-13T12:00:22;96755.88;;;26.46;39.83
3697;BME280;60662;48.810;8.872;2023-07-13T12:01:27;96765.59;;;26.97;38.60
3697;BME280;60662;48.810;8.872;2023-07-13T12:02:39;96761.59;;;26.84;38.68
3697;BME280;60662;48.810;8.872;2023-07-13T12:03:43;96764.66;;;27.62;38.70
3697;BME280;60662;48.810;8.872;2023-07-13T12:04:47;96768.88;;;27.57;37.57
3697;BME280;60662;48.810;8.872;2023-07-13T12:05:57;96772.25;;;27.26;37.89
3697;BME280;60662;48.810;8.872;2023-07-13T12:07:16;96761.66;;;27.57;37.79
3697;BME280;60662;48.810;8.872;2023-07-13T12:08:18;96769.84;;;27.64;37.00
3697;BME280;60662;48.810;8.872;2023-07-13T12:09:27;96772.06;;;27.44;38.35
3697;BME280;60662;48.810;8.872;2023-07-13T12:10:30;96764.84;;;27.36;38.15
3697;BME280;60662;48.810;8.872;2023-07-13T12:11:35;96767.31;;;28.02;37.72
3697;BME280;60662;48.810;8.872;2023-07-13T12:13:00;96759.75;;;28.14;36.98
3697;BME280;60662;48.810;8.872;2023-07-13T12:14:02;96768.53;;;28.31;36.68
3697;BME280;60662;48.810;8.872;2023-07-13T12:15:07;96769.13;;;27.78;36.94
3697;BME280;60662;48.810;8.872;2023-07-13T12:16:15;96765.63;;;28.01;37.47
3697;BME280;60662;48.810;8.872;2023-07-13T12:17:23;96761.16;;;27.62;37.19
3697;BME280;60662;48.810;8.872;2023-07-13T12:18:29;96764.25;;;27.17;37.43
3697;BME280;60662;48.810;8.872;2023-07-13T12:19:31;96769.44;;;27.83;37.30
3697;BME280;60662;48.810;8.872;2023-07-13T12:20:38;96766.66;;;27.68;37.71
3697;BME280;60662;48.810;8.872;2023-07-13T12:21:41;96763.16;;;27.51;36.65
3697;BME280;60662;48.810;8.872;2023-07-13T12:22:49;96763.84;;;27.93;37.08
3697;BME280;60662;48.810;8.872;2023-07-13T12:23:51;96766.41;;;27.86;36.43
3697;BME280;60662;48.810;8.872;2023-07-13T12:24:52;96772.81;;;27.77;36.93
3697;BME280;60662;48.810;8.872;2023-07-13T12:25:57;96746.44;;;27.41;36.29
3697;BME280;60662;48.810;8.872;2023-07-13T12:27:02;96762.59;;;26.92;37.96
3697;BME280;60662;48.810;8.872;2023-07-13T12:28:20;96760.38;;;26.62;38.60
3697;BME280;60662;48.810;8.872;2023-07-13T12:29:22;96770.94;;;27.13;38.04
3697;BME280;60662;48.810;8.872;2023-07-13T12:30:27;96757.97;;;27.50;37.61
3697;BME280;60662;48.810;8.872;2023-07-13T12:31:41;96771.44;;;27.81;37.60
3697;BME280;60662;48.810;8.872;2023-07-13T12:32:55;96768.81;;;27.73;37.20
3697;BME280;60662;48.810;8.872;2023-07-13T12:34:12;96771.88;;;27.93;36.70
3697;BME280;60662;48.810;8.872;2023-07-13T12:35:16;96763.28;;;27.75;37.02
3697;BME280;60662;48.810;8.872;2023-07-13T12:36:23;96756.19;;;27.34;37.30
3697;BME280;60662;48.810;8.872;2023-07-13T12:37:25;96759.75;;;26.60;37.24
3697;BME280;60662;48.810;8.872;2023-07-13T12:38:27;96767.56;;;27.19;38.31
3697;BME280;60662;48.810;8.872;2023-07-13T12:39:37;96766.16;;;27.65;37.95
3697;BME280;60662;48.810;8.872;2023-07-13T12:40:39;96769.53;;;27.59;37.47
3697;BME280;60662;48.810;8.872;2023-07-13T12:41:42;96769.78;;;26.83;38.22
3697;BME280;60662;48.810;8.872;2023-07-13T12:42:47;96761.25;;;26.96;37.82
3697;BME280;60662;48.810;8.872;2023-07-13T12:43:49;96757.56;;;26.80;37.56
3697;BME280;60662;48.810;8.872;2023-07-13T12:45:01;96769.94;;;27.23;38.02
3697;BME280;60662;48.810;8.872;2023-07-13T12:46:14;96769.75;;;27.89;37.57
3697;BME280;60662;48.810;8.872;2023-07-13T12:47:20;96758.28;;;28.34;37.14
3697;BME280;60662;48.810;8.872;2023-07-13T12:48:22;96764.28;;;28.13;37.09
3697;BME280;60662;48.810;8.872;2023-07-13T12:49:47;96771.81;;;28.64;36.85
3697;BME280;60662;48.810;8.872;2023-07-13T12:50:49;96768.44;;;28.16;36.62
3697;BME280;60662;48.810;8.872;2023-07-13T12:51:56;96774.88;;;28.38;36.76
3697;BME280;60662;48.810;8.872;2023-07-13T12:53:03;96769.75;;;27.89;36.78
3697;BME280;60662;48.810;8.872;2023-07-13T12:54:13;96778.00;;;26.81;37.83
3697;BME280;60662;48.810;8.872;2023-07-13T12:55:18;96770.75;;;26.32;38.30
3697;BME280;60662;48.810;8.872;2023-07-13T12:56:25;96773.06;;;26.19;38.79
3697;BME280;60662;48.810;8.872;2023-07-13T12:57:27;96774.38;;;26.15;39.18
3697;BME280;60662;48.810;8.872;2023-07-13T12:58:32;96761.56;;;26.60;38.42
3697;BME280;60662;48.810;8.872;2023-07-13T12:59:37;96770.09;;;27.04;38.59
3697;BME280;60662;48.810;8.872;2023-07-13T13:00:39;96766.81;;;27.67;37.45
3697;BME280;60662;48.810;8.872;2023-07-13T13:01:41;96764.47;;;28.12;37.22
3697;BME280;60662;48.810;8.872;2023-07-13T13:02:42;96766.13;;;28.13;37.05
3697;BME280;60662;48.810;8.872;2023-07-13T13:03:49;96759.50;;;28.24;36.64
3697;BME280;60662;48.810;8.872;2023-07-13T13:04:55;96768.41;;;28.79;37.08
3697;BME280;60662;48.810;8.872;2023-07-13T13:07:09;96771.22;;;28.54;36.52
3697;BME280;60662;48.810;8.872;2023-07-13T13:08:11;96763.22;;;28.23;37.06
3697;BME280;60662;48.810;8.872;2023-07-13T13:09:14;96771.19;;;28.62;36.25
3697;BME280;60662;48.810;8.872;2023-07-13T13:10:16;96771.34;;;28.38;36.83
3697;BME280;60662;48.810;8.872;2023-07-13T13:11:20;96766.81;;;28.38;36.77
3697;BME280;60662;48.810;8.872;2023-07-13T13:12:22;96775.41;;;28.57;36.50
3697;BME280;60662;48.810;8.872;2023-07-13T13:13:23;96760.00;;;28.50;36.93
3697;BME280;60662;48.810;8.872;2023-07-13T13:14:25;96758.38;;;28.18;36.52
3697;BME280;60662;48.810;8.872;2023-07-13T13:15:27;96762.34;;;28.30;36.78
3697;BME280;60662;48.810;8.872;2023-07-13T13:16:34;96758.72;;;28.15;36.79
3697;BME280;60662;48.810;8.872;2023-07-13T13:17:36;96762.16;;;28.78;36.70
3697;BME280;60662;48.810;8.872;2023-07-13T13:18:37;96768.19;;;29.19;36.21
3697;BME280;60662;48.810;8.872;2023-07-13T13:19:39;96761.13;;;28.01;36.79
3697;BME280;60662;48.810;8.872;2023-07-13T13:20:40;96774.50;;;28.41;36.71
3697;BME280;60662;48.810;8.872;2023-07-13T13:21:43;96763.09;;;28.16;36.23
3697;BME280;60662;48.810;8.872;2023-07-13T13:22:45;96761.19;;;28.48;36.39
3697;BME280;60662;48.810;8.872;2023-07-13T13:23:47;96757.63;;;28.32;36.56
3697;BME280;60662;48.810;8.872;2023-07-13T13:24:48;96764.34;;;28.51;36.04
3697;BME280;60662;48.810;8.872;2023-07-13T13:25:50;96763.13;;;28.86;35.71
3697;BME280;60662;48.810;8.872;2023-07-13T13:26:53;96762.47;;;28.37;34.94
3697;BME280;60662;48.810;8.872;2023-07-13T13:27:55;96768.50;;;28.86;35.50
3697;BME280;60662;48.810;8.872;2023-07-13T13:28:57;96775.69;;;28.70;35.37
3697;BME280;60662;48.810;8.872;2023-07-13T13:30:00;96761.38;;;28.93;35.41
3697;BME280;60662;48.810;8.872;2023-07-13T13:31:02;96770.41;;;28.77;36.07
3697;BME280;60662;48.810;8.872;2023-07-13T13:32:03;96765.38;;;28.27;36.24
3697;BME280;60662;48.810;8.872;2023-07-13T13:33:11;96769.78;;;27.80;36.95
3697;BME280;60662;48.810;8.872;2023-07-13T13:34:15;96770.41;;;28.54;36.39
3697;BME280;60662;48.810;8.872;2023-07-13T13:35:19;96754.91;;;29.02;35.70
3697;BME280;60662;48.810;8.872;2023-07-13T13:36:22;96751.41;;;29.16;36.04
3697;BME280;60662;48.810;8.872;2023-07-13T13:37:24;96764.56;;;28.96;35.92
3697;BME280;60662;48.810;8.872;2023-07-13T13:38:27;96760.94;;;29.04;35.46
3697;BME280;60662;48.810;8.872;2023-07-13T13:39:32;96759.13;;;29.20;35.79
3697;BME280;60662;48.810;8.872;2023-07-13T13:40:34;96753.81;;;28.96;35.72
3697;BME280;60662;48.810;8.872;2023-07-13T13:41:36;96755.38;;;28.67;35.43
3697;BME280;60662;48.810;8.872;2023-07-13T13:42:37;96748.56;;;28.80;35.97
3697;BME280;60662;48.810;8.872;2023-07-13T13:43:40;96757.84;;;28.92;35.59
3697;BME280;60662;48.810;8.872;2023-07-13T13:44:42;96756.06;;;28.84;35.70
3697;BME280;60662;48.810;8.872;2023-07-13T13:45:45;96747.75;;;27.93;36.16
3697;BME280;60662;48.810;8.872;2023-07-13T13:46:50;96752.81;;;27.32;37.12
3697;BME280;60662;48.810;8.872;2023-07-13T13:47:54;96754.97;;;27.45;37.12
3697;BME280;60662;48.810;8.872;2023-07-13T13:48:56;96761.47;;;27.67;37.70
3697;BME280;60662;48.810;8.872;2023-07-13T13:49:58;96758.91;;;28.68;37.11
3697;BME280;60662;48.810;8.872;2023-07-13T13:51:01;96756.94;;;28.85;37.64
3697;BME280;60662;48.810;8.872;2023-07-13T13:52:05;96756.78;;;29.02;36.99
3697;BME280;60662;48.810;8.872;2023-07-13T13:53:10;96748.44;;;29.11;36.93
3697;BME280;60662;48.810;8.872;2023-07-13T13:54:14;96756.78;;;28.55;37.09
3697;BME280;60662;48.810;8.872;2023-07-13T13:55:19;96749.47;;;28.72;36.36
3697;BME280;60662;48.810;8.872;2023-07-13T13:56:21;96748.25;;;28.98;36.75
3697;BME280;60662;48.810;8.872;2023-07-13T13:57:23;96752.00;;;29.42;36.00
3697;BME280;60662;48.810;8.872;2023-07-13T13:58:26;96761.38;;;29.61;35.92
3697;BME280;60662;48.810;8.872;2023-07-13T13:59:27;96750.84;;;29.06;36.59
3697;BME280;60662;48.810;8.872;2023-07-13T14:00:29;96752.91;;;28.81;36.09
3697;BME280;60662;48.810;8.872;2023-07-13T14:01:31;96752.78;;;28.28;36.82
3697;BME280;60662;48.810;8.872;2023-07-13T14:02:33;96751.13;;;29.11;36.95
3697;BME280;60662;48.810;8.872;2023-07-13T14:03:34;96747.22;;;29.14;36.21
3697;BME280;60662;48.810;8.872;2023-07-13T14:04:35;96759.34;;;29.48;36.93
3697;BME280;60662;48.810;8.872;2023-07-13T14:05:37;96746.06;;;29.31;35.42
3697;BME280;60662;48.810;8.872;2023-07-13T14:06:42;96750.06;;;28.97;36.14
3697;BME280;60662;48.810;8.872;2023-07-13T14:07:43;96753.31;;;28.23;37.19
3697;BME280;60662;48.810;8.872;2023-07-13T14:08:45;96759.16;;;27.87;37.58
3697;BME280;60662;48.810;8.872;2023-07-13T14:09:48;96767.63;;;27.76;37.55
3697;BME280;60662;48.810;8.872;2023-07-13T14:10:53;96762.06;;;28.17;36.88
3697;BME280;60662;48.810;8.872;2023-07-13T14:11:55;96750.25;;;28.03;36.41
3697;BME280;60662;48.810;8.872;2023-07-13T14:12:58;96752.75;;;28.05;36.97
3697;BME280;60662;48.810;8.872;2023-07-13T14:14:00;96766.91;;;28.22;37.62
3697;BME280;60662;48.810;8.872;2023-07-13T14:15:02;96756.03;;;27.75;37.48
3697;BME280;60662;48.810;8.872;2023-07-13T14:16:10;96761.22;;;27.85;37.50
3697;BME280;60662;48.810;8.872;2023-07-13T14:17:19;96755.53;;;28.43;37.05
3697;BME280;60662;48.810;8.872;2023-07-13T14:18:22;96753.19;;;28.63;37.12
3697;BME280;60662;48.810;8.872;2023-07-13T14:19:25;96767.22;;;28.50;37.72
3697;BME280;60662;48.810;8.872;2023-07-13T14:20:27;96756.19;;;29.44;36.64
3697;BME280;60662;48.810;8.872;2023-07-13T14:21:30;96749.75;;;29.15;36.61
3697;BME280;60662;48.810;8.872;2023-07-13T14:22:32;96752.47;;;29.45;36.45
3697;BME280;60662;48.810;8.872;2023-07-13T14:23:34;96758.75;;;29.08;37.07
3697;BME280;60662;48.810;8.872;2023-07-13T14:24:35;96738.75;;;28.72;36.23
3697;BME280;60662;48.810;8.872;2023-07-13T14:25:36;96757.28;;;27.96;37.72
3697;BME280;60662;48.810;8.872;2023-07-13T14:26:40;96755.53;;;28.43;37.23
3697;BME280;60662;48.810;8.872;2023-07-13T14:27:44;96760.44;;;28.39;37.71
3697;BME280;60662;48.810;8.872;2023-07-13T14:28:48;96765.22;;;28.52;36.76
3697;BME280;60662;48.810;8.872;2023-07-13T14:29:50;96765.50;;;28.57;37.06
3697;BME280;60662;48.810;8.872;2023-07-13T14:30:52;96761.16;;;28.79;37.49
3697;BME280;60662;48.810;8.872;2023-07-13T14:31:55;96754.38;;;28.69;36.86
3697;BME280;60662;48.810;8.872;2023-07-13T14:32:57;96758.28;;;28.81;36.35
3697;BME280;60662;48.810;8.872;2023-07-13T14:33:59;96754.41;;;28.37;36.46
3697;BME280;60662;48.810;8.872;2023-07-13T14:35:00;96758.00;;;28.21;36.87
3697;BME280;60662;48.810;8.872;2023-07-13T14:36:03;96763.16;;;28.31;36.84
3697;BME280;60662;48.810;8.872;2023-07-13T14:37:15;96761.19;;;28.48;36.75
3697;BME280;60662;48.810;8.872;2023-07-13T14:38:19;96762.81;;;29.19;36.72